Guaratinga, Brazil
Current Conditions -  °F | °C
As of 5:00 AM on Saturday 29 Nov 2014 (Local Time) from SBPS Reporting Station
Light Fog Light Fog  
Wind Chill: 73°   Ceiling: Unl
Heat Index: 73°   Visibility: 6mi
Dew Point: 72°   Wind: 2mph
Humidity: 94%   Direction: NA
Pressure: 29.97"   Gusts: NA
Location:  16.58°S, 39.78°W
Report Text: SBPS 290800Z VRB02KT 9999 2000S BCFG SCT020 23/22 Q1015
Loading
Personal Weather Stations






























Interactive Weather Map New forecast layout! Learn more

10-Day Weather Forecast

Advertisements
Track Severe Weather on mobile